Time;durP1;ratioP1;P1;durP2;ratioP2;P2;SDS_P1;SDS_P2;PMS_P1;PMS_P2;Temp;Humidity;BMP_temperature;BMP_pressure;BME280_temperature;BME280_humidity;BME280_pressure;Samples;Min_cycle;Max_cycle;Signal;HPM_P1;HPM_P2
2022/11/17 00:01:41;;;;;;;6.05;2.20;;;11.60;81.10;;;;;;5093693;28;20027;-60
2022/11/17 00:04:07;;;;;;;6.78;1.88;;;11.60;81.20;;;;;;5093270;28;20060;-61
2022/11/17 00:06:33;;;;;;;7.68;2.25;;;11.50;81.70;;;;;;5093157;28;20048;-60
2022/11/17 00:08:58;;;;;;;3.47;1.70;;;11.50;82.10;;;;;;5093283;28;20099;-60
2022/11/17 00:11:24;;;;;;;7.95;1.85;;;11.40;82.60;;;;;;5093179;28;20028;-61
2022/11/17 00:16:34;;;;;;;5.10;1.90;;;11.30;82.80;;;;;;5092556;28;20360;-63
2022/11/17 00:21:44;;;;;;;5.90;2.05;;;11.30;83.70;;;;;;5095229;28;20074;-62
2022/11/17 00:24:14;;;;;;;2.78;1.20;;;11.30;83.90;;;;;;5096110;28;20055;-61
2022/11/17 00:27:00;;;;;;;4.00;1.27;;;11.20;84.20;;;;;;5097172;28;20028;-61
2022/11/17 00:29:25;;;;;;;6.47;2.55;;;11.10;84.80;;;;;;5097118;28;20028;-61
2022/11/17 00:34:35;;;;;;;5.38;2.00;;;11.00;85.40;;;;;;5097109;28;20027;-62
2022/11/17 00:37:01;;;;;;;4.03;1.85;;;10.90;86.20;;;;;;5097126;28;20103;-62
2022/11/17 00:39:27;;;;;;;6.80;2.15;;;10.90;86.50;;;;;;5096889;28;20084;-61
2022/11/17 00:41:52;;;;;;;6.65;1.40;;;10.90;86.90;;;;;;5096222;28;20016;-61
2022/11/17 00:44:18;;;;;;;6.53;1.42;;;10.80;87.00;;;;;;5097022;28;20024;-61
2022/11/17 00:46:44;;;;;;;4.70;1.75;;;10.80;87.10;;;;;;5096931;28;20035;-61
2022/11/17 00:49:10;;;;;;;6.20;2.05;;;10.80;87.30;;;;;;5096984;28;20027;-61
2022/11/17 00:51:37;;;;;;;3.92;1.48;;;10.80;87.40;;;;;;5097090;28;20036;-61
2022/11/17 00:54:03;;;;;;;7.47;1.70;;;10.80;87.50;;;;;;5096526;28;20094;-61
2022/11/17 00:56:29;;;;;;;4.75;1.48;;;10.80;87.30;;;;;;5096681;28;20035;-60
2022/11/17 00:58:55;;;;;;;5.13;1.45;;;10.90;86.90;;;;;;5096454;28;20032;-60
2022/11/17 01:01:21;;;;;;;3.40;1.80;;;11.00;86.70;;;;;;5096252;28;20040;-61
2022/11/17 01:03:47;;;;;;;2.35;1.55;;;11.00;86.80;;;;;;5096448;28;20445;-61
2022/11/17 01:06:18;;;;;;;2.58;1.40;;;11.00;86.60;;;;;;5096545;28;20031;-61
2022/11/17 01:08:44;;;;;;;5.55;1.83;;;11.10;86.50;;;;;;5096709;28;20024;-60
2022/11/17 01:11:17;;;;;;;3.38;1.63;;;11.10;86.30;;;;;;5096322;28;20024;-61
2022/11/17 01:13:45;;;;;;;4.28;1.45;;;11.20;86.00;;;;;;5096357;28;20020;-62
2022/11/17 01:16:14;;;;;;;3.63;1.58;;;11.10;86.10;;;;;;5096364;28;20472;-60
2022/11/17 01:18:40;;;;;;;5.45;2.10;;;11.00;86.20;;;;;;5096838;28;20048;-60
2022/11/17 01:21:12;;;;;;;5.03;1.83;;;11.00;86.20;;;;;;5096363;28;20464;-61
2022/11/17 01:23:40;;;;;;;6.82;1.65;;;11.10;86.40;;;;;;5094808;28;20052;-61
2022/11/17 01:26:09;;;;;;;2.42;1.48;;;11.00;86.50;;;;;;5096100;28;20099;-61
2022/11/17 01:28:35;;;;;;;4.70;1.58;;;11.00;86.70;;;;;;5095964;28;20065;-61
2022/11/17 01:31:03;;;;;;;10.15;2.28;;;10.90;86.60;;;;;;5095927;28;20028;-60
2022/11/17 01:33:29;;;;;;;5.32;2.90;;;10.80;87.10;;;;;;5095964;28;20024;-61
2022/11/17 01:35:54;;;;;;;4.38;2.10;;;10.80;87.50;;;;;;5096097;28;20413;-61
2022/11/17 01:38:20;;;;;;;9.05;2.03;;;10.80;87.90;;;;;;5095732;28;20035;-61
2022/11/17 01:40:46;;;;;;;3.83;1.63;;;10.70;88.20;;;;;;5095637;28;20051;-61
2022/11/17 01:43:12;;;;;;;3.90;1.48;;;10.60;88.60;;;;;;5095718;28;20024;-61
2022/11/17 01:45:37;;;;;;;3.03;1.67;;;10.60;88.70;;;;;;5095944;28;20077;-61
2022/11/17 01:48:06;;;;;;;3.10;1.80;;;10.60;89.00;;;;;;5094343;28;20434;-61
2022/11/17 01:50:40;;;;;;;10.18;2.72;;;10.50;89.30;;;;;;5095614;28;20403;-61
2022/11/17 01:53:11;;;;;;;12.23;2.75;;;10.50;89.40;;;;;;5095629;28;20052;-60
2022/11/17 01:55:43;;;;;;;7.40;1.70;;;10.50;89.60;;;;;;5095748;28;20383;-60
2022/11/17 01:58:14;;;;;;;5.68;1.63;;;10.40;89.80;;;;;;5095738;28;20099;-60
2022/11/17 02:00:40;;;;;;;4.20;2.25;;;10.40;90.10;;;;;;5095171;28;20499;-60
2022/11/17 02:03:06;;;;;;;6.32;2.00;;;10.30;90.20;;;;;;5095375;28;20116;-63
2022/11/17 02:05:45;;;;;;;3.90;2.03;;;10.30;90.40;;;;;;5095441;28;20031;-61
2022/11/17 02:08:11;;;;;;;4.53;2.20;;;10.30;90.50;;;;;;5094318;28;20024;-61
2022/11/17 02:10:38;;;;;;;5.75;2.22;;;10.30;90.70;;;;;;5095246;28;20034;-61
2022/11/17 02:13:04;;;;;;;3.58;1.75;;;10.30;90.80;;;;;;5095372;28;20426;-61
2022/11/17 02:15:30;;;;;;;3.53;1.70;;;10.30;90.90;;;;;;5095118;28;20024;-61
2022/11/17 02:17:57;;;;;;;1.77;1.40;;;10.30;91.00;;;;;;5093737;28;20068;-61
2022/11/17 02:20:41;;;;;;;4.38;2.05;;;10.30;91.00;;;;;;5095141;28;20535;-61
2022/11/17 02:23:35;;;;;;;3.38;1.83;;;10.30;91.10;;;;;;5095177;28;20021;-62
2022/11/17 02:26:30;;;;;;;2.33;1.50;;;10.30;91.00;;;;;;5094802;28;20020;-62
2022/11/17 02:29:34;;;;;;;4.72;1.38;;;10.30;91.00;;;;;;5095170;28;20065;-61
2022/11/17 02:32:16;;;;;;;6.03;1.27;;;10.30;91.20;;;;;;5093471;28;20024;-61
2022/11/17 02:34:47;;;;;;;3.33;1.30;;;10.30;90.90;;;;;;5095019;28;20073;-62
2022/11/17 02:37:31;;;;;;;1.50;1.25;;;10.30;90.80;;;;;;5094780;28;20028;-61
2022/11/17 02:40:12;;;;;;;4.00;1.38;;;10.30;90.70;;;;;;5094458;28;20569;-61
2022/11/17 02:45:34;;;;;;;2.50;1.27;;;10.40;90.60;;;;;;5094039;28;20031;-61
2022/11/17 02:48:05;;;;;;;4.85;1.35;;;10.40;90.40;;;;;;5094811;28;20074;-62
2022/11/17 02:50:32;;;;;;;3.28;1.77;;;10.30;90.50;;;;;;5095032;28;20046;-61
2022/11/17 02:52:58;;;;;;;4.13;1.05;;;10.30;90.70;;;;;;5094501;28;20020;-66
2022/11/17 02:55:24;;;;;;;5.60;0.90;;;10.30;90.60;;;;;;5094389;28;20030;-61
2022/11/17 02:57:49;;;;;;;2.90;1.73;;;10.30;90.50;;;;;;5094680;28;20085;-61
2022/11/17 03:00:19;;;;;;;1.02;0.95;;;10.30;90.50;;;;;;5094015;28;20044;-61
2022/11/17 03:02:50;;;;;;;3.00;1.50;;;10.30;90.60;;;;;;5094429;28;20111;-61
2022/11/17 03:05:32;;;;;;;2.92;1.55;;;10.30;90.60;;;;;;5094225;28;20474;-60
2022/11/17 03:08:45;;;;;;;1.38;1.27;;;10.30;90.60;;;;;;5093034;28;20028;-61
2022/11/17 03:11:12;;;;;;;5.65;1.60;;;10.30;90.60;;;;;;5094575;28;20042;-62
2022/11/17 03:13:46;;;;;;;1.63;1.45;;;10.30;90.60;;;;;;5094334;28;20036;-62
2022/11/17 03:16:27;;;;;;;3.35;2.05;;;10.30;90.60;;;;;;5093999;28;20059;-61
2022/11/17 03:19:11;;;;;;;2.10;1.08;;;10.30;90.60;;;;;;5094061;28;20123;-60
2022/11/17 03:22:05;;;;;;;3.58;1.10;;;10.30;90.70;;;;;;5093798;28;20034;-61
2022/11/17 03:24:55;;;;;;;3.17;1.20;;;10.40;90.60;;;;;;5089733;28;20043;-61
2022/11/17 03:27:27;;;;;;;3.10;1.23;;;10.30;90.60;;;;;;5091028;28;20479;-61
2022/11/17 03:30:00;;;;;;;2.08;1.58;;;10.40;90.50;;;;;;5093719;28;20032;-61
2022/11/17 03:32:30;;;;;;;2.00;1.20;;;10.30;90.50;;;;;;5093697;28;20476;-61
2022/11/17 03:35:00;;;;;;;1.45;1.00;;;10.30;90.50;;;;;;5093695;28;20480;-61
2022/11/17 03:37:29;;;;;;;2.03;0.90;;;10.30;90.50;;;;;;5093922;28;20406;-61
2022/11/17 03:40:02;;;;;;;1.80;1.00;;;10.40;90.60;;;;;;5093814;28;20032;-61
2022/11/17 03:42:30;;;;;;;4.70;1.10;;;10.40;90.50;;;;;;5093671;28;20051;-61
2022/11/17 03:45:24;;;;;;;1.15;0.63;;;10.40;90.50;;;;;;5092109;28;20020;-62
2022/11/17 03:48:02;;;;;;;1.30;0.80;;;10.40;90.40;;;;;;5093510;28;20085;-61
2022/11/17 03:50:33;;;;;;;3.20;1.05;;;10.40;90.50;;;;;;5093909;28;20040;-61
2022/11/17 03:53:01;;;;;;;1.83;1.13;;;10.40;90.30;;;;;;5093590;28;20031;-61
2022/11/17 03:55:36;;;;;;;2.85;1.08;;;10.40;90.40;;;;;;5093096;28;20430;-61
2022/11/17 03:58:11;;;;;;;1.77;0.85;;;10.30;90.70;;;;;;5093231;28;20028;-61
2022/11/17 04:00:39;;;;;;;3.67;1.13;;;10.30;90.80;;;;;;5092993;28;20093;-60
2022/11/17 04:03:04;;;;;;;2.75;0.90;;;10.30;91.00;;;;;;5093209;28;20016;-61
2022/11/17 04:05:30;;;;;;;3.25;0.77;;;10.30;91.00;;;;;;5093128;28;20023;-61
2022/11/17 04:07:56;;;;;;;3.95;0.85;;;10.30;91.10;;;;;;5093095;28;20059;-61
2022/11/17 04:10:24;;;;;;;8.90;1.83;;;10.30;91.00;;;;;;5093283;28;20024;-61
2022/11/17 04:15:55;;;;;;;5.83;1.20;;;10.20;91.30;;;;;;5083135;28;20040;-61
2022/11/17 04:18:22;;;;;;;4.78;0.93;;;10.20;91.40;;;;;;5091895;28;20028;-62
2022/11/17 04:20:52;;;;;;;3.58;2.22;;;10.20;91.20;;;;;;5091715;28;20032;-60
2022/11/17 04:23:18;;;;;;;1.40;1.17;;;10.30;91.20;;;;;;5091703;28;20070;-61
2022/11/17 04:28:38;;;;;;;1.60;0.77;;;10.30;91.30;;;;;;5093307;28;20111;-61
2022/11/17 04:31:08;;;;;;;1.10;0.90;;;10.20;91.20;;;;;;5093863;28;20031;-61
2022/11/17 04:33:35;;;;;;;2.75;0.70;;;10.20;91.20;;;;;;5093075;28;20024;-60
2022/11/17 04:36:01;;;;;;;2.17;0.98;;;10.20;91.20;;;;;;5092994;28;20039;-60
2022/11/17 04:38:26;;;;;;;1.85;0.93;;;10.10;91.30;;;;;;5093106;28;20020;-60
2022/11/17 04:43:40;;;;;;;0.75;0.55;;;10.20;91.10;;;;;;5093591;28;20075;-63
2022/11/17 04:46:05;;;;;;;2.25;0.75;;;10.30;90.60;;;;;;5093267;28;20024;-60
2022/11/17 04:48:31;;;;;;;2.35;0.85;;;10.30;90.30;;;;;;5092781;28;20031;-60
2022/11/17 04:50:57;;;;;;;3.05;0.80;;;10.40;90.20;;;;;;5092921;28;20028;-60
2022/11/17 04:53:23;;;;;;;1.33;0.95;;;10.40;89.80;;;;;;5091513;28;20548;-60
2022/11/17 04:55:49;;;;;;;5.70;1.10;;;10.40;89.60;;;;;;5092767;28;20428;-60
2022/11/17 04:58:15;;;;;;;3.20;0.80;;;10.50;89.30;;;;;;5091471;28;20458;-61
2022/11/17 05:00:41;;;;;;;0.95;0.88;;;10.50;89.20;;;;;;5092489;28;20055;-61
2022/11/17 05:03:07;;;;;;;1.98;0.95;;;10.60;88.70;;;;;;5092860;28;20024;-60
2022/11/17 05:05:32;;;;;;;3.63;0.55;;;10.70;88.30;;;;;;5092919;28;20051;-61
2022/11/17 05:07:58;;;;;;;4.55;1.17;;;10.70;88.10;;;;;;5094520;28;20033;-61
2022/11/17 05:13:24;;;;;;;1.90;0.80;;;10.60;88.10;;;;;;5096650;28;20111;-61
2022/11/17 05:18:40;;;;;;;1.98;0.88;;;10.70;87.70;;;;;;5097007;28;20054;-61
2022/11/17 05:21:08;;;;;;;0.85;0.85;;;10.80;87.40;;;;;;5096420;28;20371;-60
2022/11/17 05:23:52;;;;;;;1.15;0.88;;;10.80;87.30;;;;;;5096692;28;20031;-62
2022/11/17 05:26:19;;;;;;;1.73;1.00;;;10.70;87.20;;;;;;5096445;28;20103;-61
2022/11/17 05:28:45;;;;;;;2.72;1.00;;;10.70;87.00;;;;;;5096372;28;20035;-61
2022/11/17 05:31:11;;;;;;;1.77;1.13;;;10.60;87.40;;;;;;5096221;28;20027;-61
2022/11/17 05:33:37;;;;;;;7.88;0.85;;;10.60;87.50;;;;;;5095907;28;20055;-61
2022/11/17 05:36:03;;;;;;;2.70;1.73;;;10.70;87.50;;;;;;5096100;28;20032;-61
2022/11/17 05:38:29;;;;;;;2.25;0.88;;;10.80;86.90;;;;;;5096467;28;20032;-61
2022/11/17 05:40:55;;;;;;;3.67;1.00;;;10.90;86.80;;;;;;5095762;28;20016;-61
2022/11/17 05:43:21;;;;;;;3.35;0.90;;;10.80;86.90;;;;;;5096264;28;20021;-60
2022/11/17 05:45:47;;;;;;;2.78;0.70;;;10.90;86.80;;;;;;5096520;28;20028;-61
2022/11/17 05:48:13;;;;;;;2.17;1.08;;;10.90;86.70;;;;;;5096220;28;20028;-60
2022/11/17 05:50:39;;;;;;;2.15;0.98;;;11.00;86.50;;;;;;5095800;28;20521;-61
2022/11/17 05:53:04;;;;;;;5.25;2.28;;;11.00;86.50;;;;;;5095901;28;20028;-61
2022/11/17 05:55:30;;;;;;;4.68;0.95;;;11.00;86.20;;;;;;5096270;28;20035;-61
2022/11/17 05:58:18;;;;;;;3.53;0.85;;;11.10;86.00;;;;;;5095367;28;20028;-61
2022/11/17 06:00:44;;;;;;;3.03;1.10;;;11.00;86.10;;;;;;5094898;28;20040;-61
2022/11/17 06:03:21;;;;;;;2.13;1.40;;;11.00;86.60;;;;;;5095299;28;20027;-61
2022/11/17 06:05:47;;;;;;;3.17;1.00;;;10.80;87.30;;;;;;5096080;28;20464;-61
2022/11/17 06:08:13;;;;;;;3.60;1.27;;;10.70;87.70;;;;;;5095763;28;20039;-61
2022/11/17 06:10:39;;;;;;;4.95;0.90;;;10.60;88.40;;;;;;5094247;28;20111;-61
2022/11/17 06:13:04;;;;;;;2.10;1.35;;;10.60;88.40;;;;;;5094041;28;20058;-62
2022/11/17 06:15:30;;;;;;;1.58;1.10;;;10.60;88.70;;;;;;5094101;28;20020;-61
2022/11/17 06:18:12;;;;;;;2.08;1.15;;;10.50;88.90;;;;;;5095597;28;20472;-62
2022/11/17 06:20:42;;;;;;;3.75;1.52;;;10.50;89.10;;;;;;5095217;28;20032;-62
2022/11/17 06:23:09;;;;;;;1.23;0.95;;;10.50;89.30;;;;;;5094818;28;20035;-61
2022/11/17 06:25:36;;;;;;;4.68;1.52;;;10.60;89.40;;;;;;5093029;28;20025;-60
2022/11/17 06:28:05;;;;;;;7.07;1.92;;;10.50;89.50;;;;;;5094650;28;20035;-62
2022/11/17 06:30:31;;;;;;;4.13;1.45;;;10.50;89.90;;;;;;5094344;28;20020;-61
2022/11/17 06:32:58;;;;;;;4.10;2.00;;;10.40;90.20;;;;;;5094522;28;20024;-60
2022/11/17 06:35:24;;;;;;;9.07;2.20;;;10.40;90.30;;;;;;5094530;28;20024;-61
2022/11/17 06:37:50;;;;;;;10.32;3.08;;;10.50;90.50;;;;;;5094549;28;20350;-62
2022/11/17 06:40:16;;;;;;;5.28;1.33;;;10.40;90.50;;;;;;5093546;28;20109;-60
2022/11/17 06:45:29;;;;;;;5.40;1.52;;;10.50;90.60;;;;;;5094560;28;20031;-62
2022/11/17 15:56:07;;;;;;;5.32;2.58;;;11.60;77.40;;;;;;5132542;27;20104;-51
2022/11/17 15:58:34;;;;;;;8.15;5.82;;;11.60;77.80;;;;;;5132324;27;20077;-49
2022/11/17 16:01:25;;;;;;;2.92;1.48;;;11.70;77.40;;;;;;5132629;27;20039;-52
2022/11/17 16:03:55;;;;;;;5.30;2.08;;;11.80;76.60;;;;;;5131834;27;20333;-48
2022/11/17 16:06:20;;;;;;;3.35;1.45;;;11.80;76.50;;;;;;5134338;27;20068;-50
2022/11/17 16:08:46;;;;;;;7.85;2.40;;;11.90;76.50;;;;;;5132736;28;20039;-51
2022/11/17 16:11:12;;;;;;;9.32;3.35;;;11.80;76.60;;;;;;5132398;28;20019;-50
2022/11/17 16:13:38;;;;;;;8.57;2.60;;;11.80;76.40;;;;;;5132213;27;20023;-50
2022/11/17 16:16:04;;;;;;;4.18;1.85;;;11.90;76.10;;;;;;5131850;27;20023;-52
2022/11/17 16:18:33;;;;;;;6.40;2.22;;;12.00;76.00;;;;;;5131393;27;20123;-55
2022/11/17 16:21:04;;;;;;;6.80;3.28;;;11.90;76.10;;;;;;5132876;27;20016;-63
2022/11/17 16:23:29;;;;;;;;;;;11.90;76.20;;;;;;5133051;27;20471;-61
2022/11/17 16:25:56;;;;;;;4.10;2.15;;;11.80;76.30;;;;;;5132975;28;19908;-62
2022/11/17 16:28:22;;;;;;;6.68;2.92;;;11.80;76.40;;;;;;5132320;27;20019;-64
2022/11/17 16:30:48;;;;;;;2.75;1.70;;;11.80;76.50;;;;;;5131146;27;20027;-62
2022/11/17 16:33:15;;;;;;;4.40;1.48;;;11.80;76.50;;;;;;5131065;27;20084;-60
2022/11/17 16:35:41;;;;;;;5.20;2.10;;;11.80;76.80;;;;;;5130915;27;20016;-61
2022/11/17 16:38:27;;;;;;;6.22;2.65;;;11.80;76.90;;;;;;5131163;27;20413;-63
2022/11/17 16:40:53;;;;;;;5.70;1.88;;;11.80;77.90;;;;;;5130552;27;20035;-63
2022/11/17 16:43:18;;;;;;;4.63;2.20;;;11.60;80.00;;;;;;5131301;27;20042;-62
2022/11/17 16:45:44;;;;;;;5.40;2.58;;;11.30;81.30;;;;;;5130743;27;20032;-62
2022/11/17 16:48:12;;;;;;;6.70;3.25;;;11.20;82.50;;;;;;5129669;27;20024;-49
2022/11/17 16:50:40;;;;;;;6.10;3.05;;;11.10;83.20;;;;;;5129267;28;20028;-49
2022/11/17 16:53:05;;;;;;;9.43;2.92;;;11.00;84.10;;;;;;5130697;27;20029;-52
2022/11/17 16:55:37;;;;;;;5.45;2.63;;;11.00;84.10;;;;;;5130172;28;20505;-52
2022/11/17 16:58:05;;;;;;;4.28;2.42;;;11.00;84.80;;;;;;5130557;27;20213;-49
2022/11/17 17:00:32;;;;;;;9.38;2.28;;;11.10;84.70;;;;;;5130771;27;20416;-51
2022/11/17 17:02:57;;;;;;;6.15;2.28;;;11.30;84.70;;;;;;5130681;27;20340;-53
2022/11/17 17:05:24;;;;;;;9.55;4.60;;;11.10;84.50;;;;;;5127098;28;20160;-49
2022/11/17 17:07:50;;;;;;;8.25;2.53;;;11.00;85.50;;;;;;5116680;28;20027;-52
2022/11/17 17:10:16;;;;;;;8.05;3.25;;;11.20;85.00;;;;;;5116855;27;20042;-52
2022/11/17 17:12:41;;;;;;;4.95;2.60;;;10.90;85.50;;;;;;5117183;28;20023;-49
2022/11/17 17:15:08;;;;;;;6.20;3.00;;;11.00;85.50;;;;;;5115960;28;20354;-51
2022/11/17 17:17:34;;;;;;;6.97;2.80;;;10.90;85.70;;;;;;5114965;28;20023;-50
2022/11/17 17:20:00;;;;;;;9.30;3.97;;;10.80;85.80;;;;;;5116895;28;20047;-48
2022/11/17 17:22:26;;;;;;;12.95;4.15;;;10.80;85.80;;;;;;5116630;28;20023;-50
2022/11/17 17:24:52;;;;;;;3.90;2.97;;;10.80;86.20;;;;;;5116587;28;20111;-53
2022/11/17 17:27:17;;;;;;;9.00;3.60;;;10.80;85.80;;;;;;5116335;28;20486;-50
2022/11/17 17:29:43;;;;;;;8.93;3.92;;;10.70;86.60;;;;;;5116368;28;20027;-49
2022/11/17 17:32:08;;;;;;;6.05;2.95;;;10.70;86.50;;;;;;5114895;28;20026;-49
2022/11/17 17:34:34;;;;;;;7.40;3.03;;;10.60;86.70;;;;;;5115646;28;20020;-49
2022/11/17 17:37:00;;;;;;;6.75;2.90;;;10.50;87.00;;;;;;5115851;28;20038;-51
2022/11/17 17:39:25;;;;;;;11.15;3.40;;;10.40;86.90;;;;;;5115679;28;20023;-50
2022/11/17 17:41:51;;;;;;;8.88;3.20;;;10.30;87.20;;;;;;5115841;28;20110;-48
2022/11/17 17:44:18;;;;;;;6.18;3.95;;;10.30;87.30;;;;;;5116052;28;20089;-49
2022/11/17 17:46:44;;;;;;;8.07;3.38;;;10.30;87.30;;;;;;5115925;28;20028;-50
2022/11/17 17:49:10;;;;;;;5.40;2.17;;;10.30;87.40;;;;;;5116282;28;20353;-51
2022/11/17 17:51:38;;;;;;;8.02;2.33;;;10.20;87.60;;;;;;5116213;27;20038;-48
2022/11/17 17:54:05;;;;;;;7.50;2.22;;;10.20;87.70;;;;;;5115651;28;20058;-48
2022/11/17 17:56:32;;;;;;;6.07;2.35;;;10.20;87.30;;;;;;5116195;28;20085;-51
2022/11/17 17:58:58;;;;;;;8.88;5.82;;;10.10;87.40;;;;;;5115678;28;20016;-48
2022/11/17 18:01:28;;;;;;;9.73;5.28;;;10.10;87.70;;;;;;5115645;28;20030;-52
2022/11/17 18:04:04;;;;;;;5.03;2.80;;;10.10;87.60;;;;;;5115500;28;20103;-50
2022/11/17 18:06:38;;;;;;;8.63;3.05;;;10.00;87.80;;;;;;5115645;28;20019;-48
2022/11/17 18:09:05;;;;;;;8.18;3.55;;;10.10;87.60;;;;;;5115337;28;20020;-50
2022/11/17 18:11:31;;;;;;;11.50;4.35;;;10.10;87.70;;;;;;5115416;28;20360;-51
2022/11/17 18:13:57;;;;;;;9.68;3.22;;;10.00;87.60;;;;;;5113615;28;20117;-48
2022/11/17 18:16:25;;;;;;;12.18;3.67;;;10.00;87.40;;;;;;5113813;28;20121;-48
2022/11/17 18:19:00;;;;;;;13.45;6.70;;;10.10;87.30;;;;;;5113762;28;20019;-51
2022/11/17 18:21:27;;;;;;;25.73;17.60;;;10.10;87.40;;;;;;5115031;28;20031;-51
2022/11/17 18:23:54;;;;;;;8.30;4.03;;;10.00;87.20;;;;;;5117406;28;20494;-52
2022/11/17 18:26:25;;;;;;;10.07;5.22;;;9.90;87.50;;;;;;5119208;28;20076;-49
2022/11/17 18:28:57;;;;;;;10.52;5.32;;;9.90;87.50;;;;;;5115394;28;20031;-50
2022/11/17 18:31:25;;;;;;;17.02;4.57;;;9.90;87.30;;;;;;5097663;28;20032;-51
2022/11/17 18:33:55;;;;;;;11.13;4.80;;;10.10;87.30;;;;;;5115108;28;20520;-51
2022/11/17 18:36:21;;;;;;;11.90;6.60;;;10.10;86.80;;;;;;5115450;28;20019;-50
2022/11/17 18:38:51;;;;;;;15.30;5.95;;;10.00;86.70;;;;;;5115478;28;20023;-59
2022/11/17 18:41:20;;;;;;;10.63;3.58;;;10.10;86.70;;;;;;5113774;28;20023;-50
2022/11/17 18:43:46;;;;;;;11.75;3.92;;;10.20;86.50;;;;;;5114899;28;20409;-52
2022/11/17 18:46:22;;;;;;;6.70;3.13;;;10.20;86.20;;;;;;5113757;28;20031;-53
2022/11/17 18:48:50;;;;;;;7.43;2.78;;;10.30;86.00;;;;;;5113613;28;20030;-49
2022/11/17 18:51:18;;;;;;;9.70;2.83;;;10.20;86.00;;;;;;5115339;28;20027;-49
2022/11/17 18:53:44;;;;;;;12.02;3.45;;;10.20;85.90;;;;;;5114844;27;20020;-50
2022/11/17 18:56:12;;;;;;;14.95;7.80;;;10.10;86.20;;;;;;5114811;28;20424;-54
2022/11/17 18:58:39;;;;;;;9.13;3.80;;;10.10;86.50;;;;;;5115041;28;20505;-50
2022/11/17 19:01:13;;;;;;;9.68;3.38;;;10.10;86.40;;;;;;5114487;28;20015;-49
2022/11/17 19:03:40;;;;;;;9.15;3.15;;;10.10;86.60;;;;;;5114667;28;20024;-50
2022/11/17 19:06:08;;;;;;;9.27;2.97;;;10.10;86.70;;;;;;5114356;28;20092;-48
2022/11/17 19:08:35;;;;;;;7.00;2.80;;;10.00;86.50;;;;;;5114459;27;20028;-49
2022/11/17 19:11:02;;;;;;;7.75;2.30;;;10.00;86.60;;;;;;5114828;28;20027;-52
2022/11/17 19:13:32;;;;;;;7.78;3.22;;;10.00;86.80;;;;;;5114248;28;20046;-51
2022/11/17 19:16:07;;;;;;;6.47;3.53;;;10.10;86.50;;;;;;5113002;28;20023;-47
2022/11/17 19:18:33;;;;;;;6.13;3.17;;;10.20;86.30;;;;;;5114822;28;20057;-49
2022/11/17 19:21:15;;;;;;;7.93;3.25;;;10.20;86.20;;;;;;5113940;28;20020;-49
2022/11/17 19:23:43;;;;;;;5.97;3.60;;;10.30;85.70;;;;;;5114916;28;20031;-49
2022/11/17 19:26:16;;;;;;;6.45;2.83;;;10.20;85.60;;;;;;5115234;28;20023;-55
2022/11/17 19:28:42;;;;;;;8.07;4.53;;;10.30;85.40;;;;;;5114633;28;20042;-49
2022/11/17 19:31:11;;;;;;;6.97;3.17;;;10.30;85.40;;;;;;5114326;28;20050;-49
2022/11/17 19:33:38;;;;;;;7.68;2.35;;;10.10;85.50;;;;;;5114290;28;20015;-52
2022/11/17 19:36:09;;;;;;;12.40;4.97;;;10.10;85.80;;;;;;5113936;28;20114;-50
2022/11/17 19:38:37;;;;;;;6.95;3.88;;;10.10;85.90;;;;;;5114324;28;20019;-53
2022/11/17 19:41:14;;;;;;;6.43;2.22;;;10.00;86.10;;;;;;5113951;28;20030;-51
2022/11/17 19:43:41;;;;;;;5.93;2.40;;;10.00;86.10;;;;;;5114119;28;20122;-49
2022/11/17 19:46:10;;;;;;;7.57;2.30;;;10.10;86.20;;;;;;5114170;28;20028;-50
2022/11/17 19:48:36;;;;;;;5.60;2.40;;;10.00;86.10;;;;;;5114181;28;20035;-48
2022/11/17 19:51:16;;;;;;;6.38;2.45;;;10.00;86.20;;;;;;5113681;28;20038;-50
2022/11/17 19:53:41;;;;;;;5.30;2.60;;;9.90;86.40;;;;;;5114046;28;20104;-49
2022/11/17 19:56:07;;;;;;;3.25;1.92;;;10.00;86.60;;;;;;5113684;28;20115;-49
2022/11/17 19:58:33;;;;;;;5.28;4.70;;;10.00;86.50;;;;;;5113830;28;20041;-48
2022/11/17 20:01:07;;;;;;;7.38;2.58;;;10.10;86.30;;;;;;5113652;28;20519;-51
2022/11/17 20:03:33;;;;;;;9.57;2.72;;;10.00;86.30;;;;;;5113973;28;20412;-48
2022/11/17 20:05:59;;;;;;;5.18;3.50;;;10.00;86.50;;;;;;5114198;28;20032;-52
2022/11/17 20:08:25;;;;;;;6.95;2.67;;;10.00;86.50;;;;;;5113576;28;20111;-48
2022/11/17 20:10:50;;;;;;;11.32;2.70;;;9.90;86.50;;;;;;5113245;28;20483;-50
2022/11/17 20:13:16;;;;;;;6.20;2.40;;;9.90;86.80;;;;;;5113931;28;20023;-48
2022/11/17 20:15:42;;;;;;;6.82;2.47;;;10.00;86.50;;;;;;5113463;28;20034;-48
2022/11/17 20:18:07;;;;;;;3.38;2.22;;;10.10;86.00;;;;;;5113117;28;20482;-48
2022/11/17 20:20:33;;;;;;;10.52;2.75;;;10.00;85.90;;;;;;5113454;28;20020;-51
2022/11/17 20:22:59;;;;;;;8.48;3.20;;;10.20;85.70;;;;;;5113178;28;20107;-49
2022/11/17 20:25:24;;;;;;;6.15;2.20;;;10.10;85.80;;;;;;5113771;28;20467;-47
2022/11/17 20:27:50;;;;;;;7.47;2.67;;;10.10;85.50;;;;;;5113882;28;20118;-48
2022/11/17 20:30:15;;;;;;;4.90;2.33;;;10.10;85.70;;;;;;5113651;28;20525;-51
2022/11/17 20:32:41;;;;;;;20.73;3.35;;;10.10;85.80;;;;;;5113250;28;20019;-50
2022/11/17 20:35:07;;;;;;;6.88;2.47;;;10.10;85.90;;;;;;5113714;28;20023;-50
2022/11/17 20:37:33;;;;;;;7.78;3.08;;;10.20;85.20;;;;;;5113960;28;20031;-49
2022/11/17 20:39:58;;;;;;;6.47;3.22;;;10.00;85.50;;;;;;5115751;28;20024;-53
2022/11/17 20:42:24;;;;;;;8.57;3.63;;;9.90;86.10;;;;;;5119050;28;20475;-51
2022/11/17 20:44:49;;;;;;;6.00;2.53;;;9.90;86.20;;;;;;5117464;28;20073;-52
2022/11/17 20:47:15;;;;;;;11.38;2.85;;;9.80;86.60;;;;;;5118023;28;20115;-49
2022/11/17 20:49:41;;;;;;;4.07;1.98;;;9.70;87.10;;;;;;5099170;28;20024;-48
2022/11/17 20:52:06;;;;;;;10.18;3.65;;;9.60;87.30;;;;;;5117982;28;20099;-49
2022/11/17 20:54:32;;;;;;;12.32;2.67;;;9.70;87.40;;;;;;5117790;28;20093;-51
2022/11/17 20:56:57;;;;;;;11.82;3.33;;;9.70;87.10;;;;;;5117591;28;20468;-52
2022/11/17 20:59:23;;;;;;;5.45;2.63;;;9.50;87.30;;;;;;5117689;28;20016;-49
2022/11/17 21:01:48;;;;;;;11.68;3.22;;;9.40;87.60;;;;;;5117364;28;20102;-52
2022/11/17 21:04:14;;;;;;;6.57;3.25;;;9.40;87.70;;;;;;5117956;28;20044;-53
2022/11/17 21:06:40;;;;;;;5.70;2.80;;;9.30;87.80;;;;;;5117765;28;20100;-51
2022/11/17 21:09:05;;;;;;;11.02;2.75;;;9.30;88.10;;;;;;5117679;28;20028;-53
2022/11/17 21:14:15;;;;;;;8.90;3.03;;;9.30;88.40;;;;;;5121147;28;20394;-50
2022/11/17 21:16:45;;;;;;;4.95;2.63;;;9.40;88.00;;;;;;5122005;28;20016;-49
2022/11/17 21:19:12;;;;;;;5.70;2.08;;;9.40;88.00;;;;;;5125272;28;20434;-53
2022/11/17 21:21:38;;;;;;;6.50;2.72;;;9.30;87.80;;;;;;5120349;28;20016;-51
2022/11/17 21:24:03;;;;;;;5.85;2.50;;;9.30;88.20;;;;;;5117331;28;20031;-50
2022/11/17 21:26:30;;;;;;;4.03;1.90;;;9.30;88.00;;;;;;5117252;28;20024;-50
2022/11/17 21:28:56;;;;;;;5.50;2.40;;;9.10;88.40;;;;;;5116919;28;20024;-50
2022/11/17 21:31:24;;;;;;;4.88;3.22;;;9.10;88.70;;;;;;5116407;28;20030;-49
2022/11/17 21:34:01;;;;;;;4.93;2.42;;;9.00;88.80;;;;;;5116464;28;20023;-53
2022/11/17 21:36:28;;;;;;;5.30;2.78;;;9.00;89.10;;;;;;5114979;28;20080;-52
2022/11/17 21:38:54;;;;;;;5.72;2.28;;;9.00;89.10;;;;;;5116427;28;20386;-53
2022/11/17 21:41:25;;;;;;;7.15;2.42;;;9.00;89.30;;;;;;5115182;28;20027;-49
2022/11/17 21:43:53;;;;;;;7.10;2.05;;;9.00;88.90;;;;;;5115916;28;20024;-55
2022/11/17 21:46:21;;;;;;;4.75;1.90;;;8.90;89.00;;;;;;5116108;28;20463;-53
2022/11/17 21:48:47;;;;;;;7.57;2.53;;;8.80;89.20;;;;;;5114616;28;20027;-49
2022/11/17 21:51:20;;;;;;;5.18;2.22;;;8.80;89.30;;;;;;5116799;28;20023;-49
2022/11/17 21:53:46;;;;;;;7.65;2.65;;;8.80;89.30;;;;;;5115023;28;20474;-51
2022/11/17 21:56:13;;;;;;;7.25;2.45;;;8.80;89.50;;;;;;5116083;28;20024;-48
2022/11/17 21:58:39;;;;;;;6.18;2.35;;;8.80;89.60;;;;;;5116580;28;20044;-52
2022/11/17 22:01:12;;;;;;;6.95;2.00;;;8.80;89.70;;;;;;5114488;28;20075;-50
2022/11/17 22:03:39;;;;;;;6.10;1.88;;;8.80;89.70;;;;;;5115963;28;20018;-50
2022/11/17 22:06:09;;;;;;;7.22;2.03;;;8.80;89.30;;;;;;5115739;28;20062;-48
2022/11/17 22:08:40;;;;;;;6.60;2.17;;;8.90;89.70;;;;;;5115704;28;20024;-47
2022/11/17 22:11:10;;;;;;;7.30;2.35;;;9.10;88.90;;;;;;5115553;28;20038;-50
2022/11/17 22:13:37;;;;;;;5.25;1.92;;;8.80;88.60;;;;;;5115907;28;20387;-49
2022/11/17 22:16:11;;;;;;;4.75;2.17;;;8.80;89.20;;;;;;5115716;28;20024;-51
2022/11/17 22:18:37;;;;;;;9.40;2.28;;;8.80;89.00;;;;;;5115969;28;20464;-50
2022/11/17 22:21:03;;;;;;;3.53;2.40;;;8.80;89.10;;;;;;5115423;27;20065;-49
2022/11/17 22:23:29;;;;;;;7.65;3.53;;;8.80;89.20;;;;;;5115251;28;20505;-49
2022/11/17 22:25:59;;;;;;;6.75;2.30;;;8.80;89.10;;;;;;5114012;28;20020;-48
2022/11/17 22:28:26;;;;;;;7.10;2.60;;;8.60;89.40;;;;;;5115341;28;20035;-50
2022/11/17 22:30:52;;;;;;;6.70;2.38;;;8.60;89.40;;;;;;5113834;28;20047;-51
2022/11/17 22:33:19;;;;;;;5.60;2.40;;;8.50;89.70;;;;;;5115110;28;20084;-51
2022/11/17 22:35:45;;;;;;;5.55;2.85;;;8.60;90.00;;;;;;5115192;28;20027;-50